Summary for KCOGRAND2

Redlands, Southcamp Road & Dakota Circle, Grand Junction, CO 81507
Join the PWSweather.com Network
View data in metric units
Latest Conditions
Updated 5:29:20 AM MDT Tuesday, Sep 2, 2014
Data Currently Today's Max Today's Min Today's Average
Temperature 60.3°F15.7°C 68.2°F20.1°C 59.2°F15.1°C 63.9°F17.7°C
Dew Point 30.2°F-1.0°C 31.6°F-0.2°C 12.0°F-11.1°C 22.2°F-5.4°C
Winds 6.0 mph NNW9.7 kmh NNW 6.0 mph NNW9.7 kmh NNW CalmCalm 2.1 mph3.4 kmh
Wind Gusts 7.8 mph12.6 kmh 7.8 mph12.6 kmh -- 4.9 mph7.9 kmh
Humidity 32% 35% 12% 22%
Pressure 25.10 in850.0 mb 25.10 in850.0 mb 25.07 in849.0 mb 25.09 in849.6 mb
Precipitation 0.00 in0.0 mm - - 0.00 in0.0 mm
Trends
 
Station Profile
Redlands, Southcamp Road & Dakota CircleGrand Junction, CO 81507

Lat: 39.055, Lon: -108.637
Elevation: 4870
Station Type: RadioShack WX200

Detailed Summary for Tue, Sep 02, 2014
Hour (MDT) Temperature Dew Point Humidity Winds Wind Gusts Pressure Precip Precip Rate Daily Precip Total
05:29 AM 60.3°F15.7°C 30.2°F-1.0°C 32% 6.0 mph NNW9.7 kmh NNW 7.8 mph12.6 kmh 25.10 in850.0 mb 0.00 in0.0 mm 0.00 in/hr0.0 mm/hr 0.00 in0.0 mm
05:24 AM 60.8°F16.0°C 28.4°F-2.0°C 29% 4.0 mph N6.4 kmh N 6.9 mph11.1 kmh 25.10 in850.0 mb 0.00 in0.0 mm 0.00 in/hr0.0 mm/hr 0.00 in0.0 mm
05:19 AM 61.5°F16.4°C 26.2°F-3.2°C 26% 3.0 mph N4.8 kmh N 6.7 mph10.8 kmh 25.10 in850.0 mb 0.00 in0.0 mm 0.00 in/hr0.0 mm/hr 0.00 in0.0 mm
05:14 AM 63.5°F17.5°C 26.1°F-3.3°C 24% 2.0 mph N3.2 kmh N 3.6 mph5.8 kmh 25.10 in850.0 mb 0.00 in0.0 mm 0.00 in/hr0.0 mm/hr 0.00 in0.0 mm
05:09 AM 63.9°F17.7°C 26.4°F-3.1°C 24% 1.0 mph N1.6 kmh N 4.5 mph7.2 kmh 25.10 in850.0 mb 0.00 in0.0 mm 0.00 in/hr0.0 mm/hr 0.00 in0.0 mm
05:04 AM 63.0°F17.2°C 26.6°F-3.0°C 25% 2.0 mph N3.2 kmh N 4.0 mph6.4 kmh 25.10 in850.0 mb 0.00 in0.0 mm 0.00 in/hr0.0 mm/hr 0.00 in0.0 mm
04:59 AM 62.6°F17.0°C 26.2°F-3.2°C 25% 2.0 mph N3.2 kmh N 4.0 mph6.4 kmh 25.10 in850.0 mb 0.00 in0.0 mm 0.00 in/hr0.0 mm/hr 0.00 in0.0 mm
04:54 AM 62.8°F17.1°C 26.4°F-3.1°C 25% 4.0 mph N6.4 kmh N 7.8 mph12.6 kmh 25.10 in850.0 mb 0.00 in0.0 mm 0.00 in/hr0.0 mm/hr 0.00 in0.0 mm
04:49 AM 63.7°F17.6°C 27.1°F-2.7°C 25% 4.0 mph N6.4 kmh N 6.3 mph10.1 kmh 25.10 in850.0 mb 0.00 in0.0 mm 0.00 in/hr0.0 mm/hr 0.00 in0.0 mm
04:44 AM 62.4°F16.9°C 28.0°F-2.2°C 27% 3.0 mph NNE4.8 kmh NNE 5.4 mph8.7 kmh 25.10 in850.0 mb 0.00 in0.0 mm 0.00 in/hr0.0 mm/hr 0.00 in0.0 mm
04:39 AM 61.5°F16.4°C 28.9°F-1.7°C 29% 4.0 mph NNE6.4 kmh NNE 4.9 mph7.9 kmh 25.10 in850.0 mb 0.00 in0.0 mm 0.00 in/hr0.0 mm/hr 0.00 in0.0 mm
04:34 AM 60.8°F16.0°C 30.7°F-0.7°C 32% 2.0 mph NE3.2 kmh NE 6.3 mph10.1 kmh 25.10 in850.0 mb 0.00 in0.0 mm 0.00 in/hr0.0 mm/hr 0.00 in0.0 mm
04:29 AM 59.9°F15.5°C 31.5°F-0.3°C 34% 2.0 mph NE3.2 kmh NE 4.9 mph7.9 kmh 25.10 in850.0 mb 0.00 in0.0 mm 0.00 in/hr0.0 mm/hr 0.00 in0.0 mm
04:24 AM 59.4°F15.2°C 31.6°F-0.2°C 35% 3.0 mph NE4.8 kmh NE 5.8 mph9.3 kmh 25.10 in850.0 mb 0.00 in0.0 mm 0.00 in/hr0.0 mm/hr 0.00 in0.0 mm
04:19 AM 59.4°F15.2°C 31.6°F-0.2°C 35% 1.0 mph NE1.6 kmh NE 5.8 mph9.3 kmh 25.10 in850.0 mb 0.00 in0.0 mm 0.00 in/hr0.0 mm/hr 0.00 in0.0 mm
04:14 AM 59.2°F15.1°C 31.5°F-0.3°C 35% 2.0 mph NE3.2 kmh NE 3.6 mph5.8 kmh 25.10 in850.0 mb 0.00 in0.0 mm 0.00 in/hr0.0 mm/hr 0.00 in0.0 mm
04:09 AM 59.9°F15.5°C 31.5°F-0.3°C 34% 3.0 mph ENE4.8 kmh ENE 6.3 mph10.1 kmh 25.10 in850.0 mb 0.00 in0.0 mm 0.00 in/hr0.0 mm/hr 0.00 in0.0 mm
04:04 AM 59.7°F15.4°C 31.3°F-0.4°C 34% 2.0 mph ENE3.2 kmh ENE 4.9 mph7.9 kmh 25.10 in850.0 mb 0.00 in0.0 mm 0.00 in/hr0.0 mm/hr 0.00 in0.0 mm
03:59 AM 59.9°F15.5°C 31.5°F-0.3°C 34% 1.0 mph ENE1.6 kmh ENE 4.5 mph7.2 kmh 25.10 in850.0 mb 0.00 in0.0 mm 0.00 in/hr0.0 mm/hr 0.00 in0.0 mm
03:54 AM 60.1°F15.6°C 31.6°F-0.2°C 34% 1.0 mph ENE1.6 kmh ENE 3.1 mph5.0 kmh 25.10 in850.0 mb 0.00 in0.0 mm 0.00 in/hr0.0 mm/hr 0.00 in0.0 mm
03:49 AM 60.3°F15.7°C 31.1°F-0.5°C 33% 2.0 mph NE3.2 kmh NE 4.9 mph7.9 kmh 25.10 in850.0 mb 0.00 in0.0 mm 0.00 in/hr0.0 mm/hr 0.00 in0.0 mm
03:44 AM 60.8°F16.0°C 30.7°F-0.7°C 32% 3.0 mph N4.8 kmh N 6.3 mph10.1 kmh 25.07 in849.0 mb 0.00 in0.0 mm 0.00 in/hr0.0 mm/hr 0.00 in0.0 mm
03:39 AM 61.0°F16.1°C 30.2°F-1.0°C 31% 4.0 mph N6.4 kmh N 5.8 mph9.3 kmh 25.07 in849.0 mb 0.00 in0.0 mm 0.00 in/hr0.0 mm/hr 0.00 in0.0 mm
03:34 AM 60.6°F15.9°C 31.3°F-0.4°C 33% 2.0 mph N3.2 kmh N 6.7 mph10.8 kmh 25.07 in849.0 mb 0.00 in0.0 mm 0.00 in/hr0.0 mm/hr 0.00 in0.0 mm
03:29 AM 59.7°F15.4°C 29.1°F-1.6°C 31% 2.0 mph N3.2 kmh N 4.0 mph6.4 kmh 25.07 in849.0 mb 0.00 in0.0 mm 0.00 in/hr0.0 mm/hr 0.00 in0.0 mm
03:24 AM 60.1°F15.6°C 26.1°F-3.3°C 27% 4.0 mph NNE6.4 kmh NNE 5.8 mph9.3 kmh 25.07 in849.0 mb 0.00 in0.0 mm 0.00 in/hr0.0 mm/hr 0.00 in0.0 mm
03:19 AM 60.8°F16.0°C 24.8°F-4.0°C 25% 4.0 mph NE6.4 kmh NE 6.9 mph11.1 kmh 25.07 in849.0 mb 0.00 in0.0 mm 0.00 in/hr0.0 mm/hr 0.00 in0.0 mm
03:14 AM 62.2°F16.8°C 23.9°F-4.5°C 23% 2.0 mph E3.2 kmh E 6.7 mph10.8 kmh 25.07 in849.0 mb 0.00 in0.0 mm 0.00 in/hr0.0 mm/hr 0.00 in0.0 mm
03:08 AM 63.7°F17.6°C 19.4°F-7.0°C 18% 1.0 mph ENE1.6 kmh ENE 5.8 mph9.3 kmh 25.07 in849.0 mb 0.00 in0.0 mm 0.00 in/hr0.0 mm/hr 0.00 in0.0 mm
03:03 AM 64.4°F18.0°C 15.8°F-9.0°C 15% 1.0 mph NE1.6 kmh NE 4.0 mph6.4 kmh 25.07 in849.0 mb 0.00 in0.0 mm 0.00 in/hr0.0 mm/hr 0.00 in0.0 mm
02:58 AM 64.9°F18.3°C 16.2°F-8.8°C 15% Calm Calm 5.8 mph9.3 kmh 25.07 in849.0 mb 0.00 in0.0 mm 0.00 in/hr0.0 mm/hr 0.00 in0.0 mm
02:53 AM 66.0°F18.9°C 12.0°F-11.1°C 12% Calm Calm 2.7 mph4.3 kmh 25.07 in849.0 mb 0.00 in0.0 mm 0.00 in/hr0.0 mm/hr 0.00 in0.0 mm
02:48 AM 66.6°F19.2°C 12.4°F-10.9°C 12% Calm Calm -- 25.07 in849.0 mb 0.00 in0.0 mm 0.00 in/hr0.0 mm/hr 0.00 in0.0 mm
02:43 AM 66.4°F19.1°C 12.2°F-11.0°C 12% Calm Calm 2.7 mph4.3 kmh 25.07 in849.0 mb 0.00 in0.0 mm 0.00 in/hr0.0 mm/hr 0.00 in0.0 mm
02:38 AM 66.6°F19.2°C 12.4°F-10.9°C 12% Calm Calm -- 25.07 in849.0 mb 0.00 in0.0 mm 0.00 in/hr0.0 mm/hr 0.00 in0.0 mm
02:33 AM 66.0°F18.9°C 17.1°F-8.3°C 15% 1.0 mph E1.6 kmh E 4.9 mph7.9 kmh 25.07 in849.0 mb 0.00 in0.0 mm 0.00 in/hr0.0 mm/hr 0.00 in0.0 mm
02:28 AM 65.8°F18.8°C 16.9°F-8.4°C 15% 2.0 mph E3.2 kmh E 3.6 mph5.8 kmh 25.07 in849.0 mb 0.00 in0.0 mm 0.00 in/hr0.0 mm/hr 0.00 in0.0 mm
02:23 AM 64.6°F18.1°C 20.1°F-6.6°C 18% 1.0 mph NE1.6 kmh NE 5.4 mph8.7 kmh 25.07 in849.0 mb 0.00 in0.0 mm 0.00 in/hr0.0 mm/hr 0.00 in0.0 mm
02:18 AM 64.4°F18.0°C 19.9°F-6.7°C 18% Calm Calm 4.0 mph6.4 kmh 25.07 in849.0 mb 0.00 in0.0 mm 0.00 in/hr0.0 mm/hr 0.00 in0.0 mm
02:13 AM 63.3°F17.4°C 19.0°F-7.2°C 18% Calm Calm 2.7 mph4.3 kmh 25.07 in849.0 mb 0.00 in0.0 mm 0.00 in/hr0.0 mm/hr 0.00 in0.0 mm
02:08 AM 64.2°F17.9°C 15.6°F-9.1°C 15% 1.0 mph NNE1.6 kmh NNE 3.1 mph5.0 kmh 25.07 in849.0 mb 0.00 in0.0 mm 0.00 in/hr0.0 mm/hr 0.00 in0.0 mm
02:03 AM 64.8°F18.2°C 16.0°F-8.9°C 15% 1.0 mph NNE1.6 kmh NNE 4.9 mph7.9 kmh 25.07 in849.0 mb 0.00 in0.0 mm 0.00 in/hr0.0 mm/hr 0.00 in0.0 mm
01:58 AM 67.3°F19.6°C 12.9°F-10.6°C 12% Calm Calm 5.4 mph8.7 kmh 25.07 in849.0 mb 0.00 in0.0 mm 0.00 in/hr0.0 mm/hr 0.00 in0.0 mm
01:53 AM 66.9°F19.4°C 12.7°F-10.7°C 12% 1.0 mph NNE1.6 kmh NNE 2.7 mph4.3 kmh 25.07 in849.0 mb 0.00 in0.0 mm 0.00 in/hr0.0 mm/hr 0.00 in0.0 mm
01:48 AM 66.2°F19.0°C 12.0°F-11.1°C 12% 3.0 mph NNE4.8 kmh NNE 5.4 mph8.7 kmh 25.07 in849.0 mb 0.00 in0.0 mm 0.00 in/hr0.0 mm/hr 0.00 in0.0 mm
01:43 AM 66.2°F19.0°C 12.0°F-11.1°C 12% 3.0 mph NNE4.8 kmh NNE 4.5 mph7.2 kmh 25.07 in849.0 mb 0.00 in0.0 mm 0.00 in/hr0.0 mm/hr 0.00 in0.0 mm
01:38 AM 66.4°F19.1°C 12.2°F-11.0°C 12% 2.0 mph NNE3.2 kmh NNE 5.4 mph8.7 kmh 25.07 in849.0 mb 0.00 in0.0 mm 0.00 in/hr0.0 mm/hr 0.00 in0.0 mm
01:33 AM 66.4°F19.1°C 12.2°F-11.0°C 12% 2.0 mph NNE3.2 kmh NNE 4.5 mph7.2 kmh 25.07 in849.0 mb 0.00 in0.0 mm 0.00 in/hr0.0 mm/hr 0.00 in0.0 mm
01:28 AM 66.9°F19.4°C 12.7°F-10.7°C 12% 2.0 mph NNE3.2 kmh NNE 5.4 mph8.7 kmh 25.10 in850.0 mb 0.00 in0.0 mm 0.00 in/hr0.0 mm/hr 0.00 in0.0 mm
01:23 AM 67.3°F19.6°C 12.9°F-10.6°C 12% 4.0 mph N6.4 kmh N 6.7 mph10.8 kmh 25.10 in850.0 mb 0.00 in0.0 mm 0.00 in/hr0.0 mm/hr 0.00 in0.0 mm
01:18 AM 67.1°F19.5°C 12.7°F-10.7°C 12% 4.0 mph N6.4 kmh N 6.7 mph10.8 kmh 25.10 in850.0 mb 0.00 in0.0 mm 0.00 in/hr0.0 mm/hr 0.00 in0.0 mm
01:13 AM 67.1°F19.5°C 12.7°F-10.7°C 12% 4.0 mph SW6.4 kmh SW 7.4 mph11.9 kmh 25.10 in850.0 mb 0.00 in0.0 mm 0.00 in/hr0.0 mm/hr 0.00 in0.0 mm
01:08 AM 67.3°F19.6°C 12.9°F-10.6°C 12% 4.0 mph SW6.4 kmh SW 5.4 mph8.7 kmh 25.10 in850.0 mb 0.00 in0.0 mm 0.00 in/hr0.0 mm/hr 0.00 in0.0 mm
01:03 AM 66.9°F19.4°C 17.8°F-7.9°C 15% 4.0 mph SW6.4 kmh SW 6.3 mph10.1 kmh 25.10 in850.0 mb 0.00 in0.0 mm 0.00 in/hr0.0 mm/hr 0.00 in0.0 mm
12:58 AM 67.3°F19.6°C 18.1°F-7.7°C 15% 4.0 mph SW6.4 kmh SW 5.4 mph8.7 kmh 25.10 in850.0 mb 0.00 in0.0 mm 0.00 in/hr0.0 mm/hr 0.00 in0.0 mm
12:53 AM 67.6°F19.8°C 18.3°F-7.6°C 15% 4.0 mph SW6.4 kmh SW 6.3 mph10.1 kmh 25.10 in850.0 mb 0.00 in0.0 mm 0.00 in/hr0.0 mm/hr 0.00 in0.0 mm
12:48 AM 68.2°F20.1°C 18.9°F-7.3°C 15% 3.0 mph SW4.8 kmh SW 4.9 mph7.9 kmh 25.10 in850.0 mb 0.00 in0.0 mm 0.00 in/hr0.0 mm/hr 0.00 in0.0 mm
12:43 AM 67.8°F19.9°C 18.5°F-7.5°C 15% 4.0 mph SW6.4 kmh SW 5.4 mph8.7 kmh 25.10 in850.0 mb 0.00 in0.0 mm 0.00 in/hr0.0 mm/hr 0.00 in0.0 mm
12:38 AM 66.7°F19.3°C 20.5°F-6.4°C 17% 3.0 mph SW4.8 kmh SW 5.8 mph9.3 kmh 25.10 in850.0 mb 0.00 in0.0 mm 0.00 in/hr0.0 mm/hr 0.00 in0.0 mm
12:33 AM 65.8°F18.8°C 23.7°F-4.6°C 20% 2.0 mph SW3.2 kmh SW 5.8 mph9.3 kmh 25.10 in850.0 mb 0.00 in0.0 mm 0.00 in/hr0.0 mm/hr 0.00 in0.0 mm
12:28 AM 65.8°F18.8°C 25.9°F-3.4°C 22% 2.0 mph SSW3.2 kmh SSW 6.3 mph10.1 kmh 25.10 in850.0 mb 0.00 in0.0 mm 0.00 in/hr0.0 mm/hr 0.00 in0.0 mm
12:23 AM 65.7°F18.7°C 25.7°F-3.5°C 22% Calm Calm 4.5 mph7.2 kmh 25.10 in850.0 mb 0.00 in0.0 mm 0.00 in/hr0.0 mm/hr 0.00 in0.0 mm
12:18 AM 65.3°F18.5°C 26.6°F-3.0°C 23% Calm Calm -- 25.10 in850.0 mb 0.00 in0.0 mm 0.00 in/hr0.0 mm/hr 0.00 in0.0 mm
12:13 AM 65.3°F18.5°C 26.6°F-3.0°C 23% Calm Calm -- 25.10 in850.0 mb 0.00 in0.0 mm 0.00 in/hr0.0 mm/hr 0.00 in0.0 mm
12:08 AM 65.5°F18.6°C 26.8°F-2.9°C 23% Calm Calm 3.1 mph5.0 kmh 25.10 in850.0 mb 0.00 in0.0 mm 0.00 in/hr0.0 mm/hr 0.00 in0.0 mm
12:03 AM 65.7°F18.7°C 26.8°F-2.9°C 23% 1.0 mph SW1.6 kmh SW 4.0 mph6.4 kmh 25.10 in850.0 mb 0.00 in0.0 mm 0.00 in/hr0.0 mm/hr 0.00 in0.0 mm
WeatherForYou.com, LLC is not responsible for any damages or problems caused by this service. Current weather conditions are obtained from the closest station including government and personal stations which may have varying degrees of accuracy. Weather forecasts are derived from the NOAA NDFD and obtained through HAMweather's Aeris Weather API. Like all things, this site belongs to Jesus Christ... He just trusts me to maintain it. If you have any questions or comments email webmaster@weatherforyou.com

Copyright © 2014, WeatherForYou.com LLC. All rights reserved.